Aviation Digital Data Service (ADDS)

Output produced by METARs form (0159 UTC 27 February 2017)
found at http://www.aviationweather.gov/adds/metars/
 
KPHL 262330Z 2700/2806 29012KT P6SM FEW050 
     FM270100 27006KT P6SM SKC 
     FM271000 21005KT P6SM BKN120 
     FM271800 24011G18KT P6SM SCT070 OVC100 
     FM272300 24008KT P6SM SCT070 BKN100